International Virtual Aviation Organisation

Eastern Europe and Northern Asia MCD

 
UWWW 131800Z 16003MPS CAVOK 13/04 Q1032 R15/CLRD60 NOSIG RMK QFE762/1016
QNH:(hPa/inHg/mmHg)1032 / 30.47 / 774
QFE:(hPa/inHg/mmHg)1014 / 29.95 / 761
Temperature13
Dew Point4
Visibility> 10000
WeatherCAVOK
Cloud Cover
Transition Height900 m./3500 ft.
Transition LevelFL50
SQUAWK